Airfield :
LOGIN :

Register | Disclaimer

   EN    FR    IT 

 










Legend :    VFR   Marginal VFR   IFR   Intensive IFR   Very Intensive IFR
Visi :
Ceiling :
>= 8 km
>= 3000ft
5 to 8 km
1000 to 3000 ft
1500m to 5 km
500 to 1000 ft
800 to 1500m
200 to 500 ft
< 800m
< 200 ft
Symbols :   Thunderstorms  Fog  Heavy snow  Heavy precipitations  Wind > 20 kt
SIGMETs :     Misc.  Thunderstorms  Icing  Turbulence  Mountain Waves  Volcanic Ashes






- Airport Elevation : 778 ft
- IATA code : BRQ


LKTB - Brno-Turany

CURRENT METAR :
  • 302000Z 35007KT CAVOK 28/18 Q1011 NOSIG

EXPIRED METARs :
  • 301930Z 35007KT CAVOK 29/18 Q1011 NOSIG
  • 301900Z 34007KT CAVOK 30/18 Q1010 NOSIG
  • 301830Z 33007KT CAVOK 30/16 Q1010 NOSIG
  • 301800Z 32008KT CAVOK 31/16 Q1010 NOSIG
  • 301730Z 32008KT CAVOK 31/16 Q1010 NOSIG

TAF TAF LKTB
Valid from the 30 at 18:00 until the 02 at 00:00 UTC


301700Z 3018/0200 07005KT CAVOK
BECMG 0105/0107 18008KT
TEMPO 0110/0200 4000 TSRA SCT030CB BKN040



MET'MAP, your aeronautical weather chart ! - Copyright ORBIFLY December 2007 - Disclaimer

ORBIFLY MET'MAP TEAM :

Programming & Development : Alexandra Zaïnal
Original concept : Baudouin d'Aumeries
Technical & hardware support : Manuel Goepfert
Assistance : Marc-Olivier Méhu




SOURCES & CREDITS :

   NOAA